METAR Data
IDs: Format: Raw Decoded Include TAF

Data at: 2039 UTC 02 Aug 2021

LIRP 022015Z 24005KT CAVOK 21/18 Q1015 NOSIG